createdAt,value
2019-04-23T00:01:55.579Z,17.20
2019-04-23T00:04:26.500Z,17.20
2019-04-23T00:07:07.412Z,17.20
2019-04-23T00:09:33.020Z,17.10
2019-04-23T00:11:59.845Z,17.10
2019-04-23T00:14:39.556Z,17.20
2019-04-23T00:17:11.593Z,17.20
2019-04-23T00:19:43.220Z,17.20
2019-04-23T00:22:29.050Z,17.20
2019-04-23T00:25:34.467Z,17.20
2019-04-23T00:27:38.863Z,17.10
2019-04-23T00:30:00.859Z,17.10
2019-04-23T00:35:12.463Z,17.10
2019-04-23T00:37:55.044Z,17.00
2019-04-23T00:40:11.332Z,17.00
2019-04-23T00:45:16.447Z,16.80
2019-04-23T00:47:49.642Z,16.70
2019-04-23T00:50:32.681Z,16.60
2019-04-23T00:53:10.959Z,16.80
2019-04-23T00:55:36.987Z,16.80
2019-04-23T00:58:06.228Z,16.70
2019-04-23T01:03:10.326Z,16.40
2019-04-23T01:05:35.608Z,16.40
2019-04-23T01:08:16.549Z,16.50
2019-04-23T01:10:53.945Z,16.50
2019-04-23T01:15:53.748Z,16.50
2019-04-23T01:18:38.167Z,16.50
2019-04-23T01:20:53.580Z,16.40
2019-04-23T01:23:32.269Z,16.40
2019-04-23T01:26:16.408Z,16.40
2019-04-23T01:28:55.919Z,16.40
2019-04-23T01:31:27.158Z,16.40
2019-04-23T01:33:55.528Z,16.40
2019-04-23T01:36:33.059Z,16.30
2019-04-23T01:39:08.520Z,16.30
2019-04-23T01:41:45.394Z,16.20
2019-04-23T01:44:11.984Z,16.20
2019-04-23T01:46:45.816Z,16.20
2019-04-23T01:49:14.110Z,16.10
2019-04-23T01:51:46.810Z,16.00
2019-04-23T01:54:19.281Z,16.10
2019-04-23T01:56:49.456Z,16.10
2019-04-23T01:59:39.254Z,16.10
2019-04-23T02:06:59.378Z,16.00
2019-04-23T02:09:37.276Z,15.90
2019-04-23T02:12:07.425Z,16.00
2019-04-23T02:14:37.600Z,15.90
2019-04-23T02:17:11.791Z,15.80
2019-04-23T02:19:45.778Z,15.90
2019-04-23T02:22:41.629Z,15.90
2019-04-23T02:25:34.506Z,15.90
2019-04-23T02:28:01.875Z,15.70
2019-04-23T02:31:08.113Z,15.80
2019-04-23T02:33:17.739Z,15.80
2019-04-23T02:43:13.322Z,15.70
2019-04-23T02:56:14.632Z,15.60
2019-04-23T02:58:42.337Z,15.50
2019-04-23T03:01:14.966Z,15.40
2019-04-23T03:03:38.426Z,15.30
2019-04-23T03:08:39.456Z,15.40
2019-04-23T03:11:26.823Z,15.40
2019-04-23T03:13:47.806Z,15.40
2019-04-23T03:16:37.998Z,15.40
2019-04-23T03:19:13.580Z,15.30
2019-04-23T03:21:57.629Z,15.30
2019-04-23T03:29:51.243Z,15.20
2019-04-23T03:40:00.484Z,15.10
2019-04-23T03:42:17.304Z,15.00
2019-04-23T03:44:56.234Z,15.00
2019-04-23T03:50:23.663Z,15.00
2019-04-23T03:55:03.562Z,15.00
2019-04-23T03:57:30.974Z,14.90
2019-04-23T04:03:02.168Z,14.90
2019-04-23T04:05:12.519Z,14.90
2019-04-23T04:10:11.394Z,14.90
2019-04-23T04:12:42.482Z,14.90
2019-04-23T04:15:31.204Z,14.80
2019-04-23T04:18:03.870Z,14.80
2019-04-23T04:20:32.626Z,14.80
2019-04-23T04:23:51.436Z,14.90
2019-04-23T04:28:05.137Z,14.80
2019-04-23T04:33:33.971Z,14.70
2019-04-23T04:36:07.841Z,14.60
2019-04-23T04:46:12.738Z,14.60
2019-04-23T04:48:44.491Z,14.60
2019-04-23T04:58:46.974Z,14.50
2019-04-23T05:01:16.563Z,14.50
2019-04-23T05:04:04.871Z,14.60
2019-04-23T05:08:58.425Z,14.50
2019-04-23T05:13:49.812Z,14.40
2019-04-23T05:19:13.752Z,14.40
2019-04-23T05:24:08.282Z,14.40
2019-04-23T05:26:56.506Z,14.40
2019-04-23T05:31:37.619Z,14.50
2019-04-23T05:34:27.418Z,14.50
2019-04-23T05:36:51.121Z,14.40
2019-04-23T05:39:32.632Z,14.30
2019-04-23T05:49:24.796Z,14.50
2019-04-23T05:54:37.389Z,14.60
2019-04-23T05:57:09.895Z,14.60
2019-04-23T05:59:34.322Z,14.60
2019-04-23T06:02:07.537Z,14.50
2019-04-23T06:07:23.550Z,14.70
2019-04-23T06:09:48.014Z,14.70
2019-04-23T06:12:16.902Z,14.70
2019-04-23T06:17:32.932Z,14.90
2019-04-23T06:19:58.120Z,14.90
2019-04-23T06:22:28.863Z,15.00
2019-04-23T06:24:57.901Z,15.10
2019-04-23T06:27:27.349Z,15.00
2019-04-23T06:32:31.309Z,15.00
2019-04-23T06:35:08.805Z,15.00
2019-04-23T06:37:58.697Z,15.00
2019-04-23T06:40:12.148Z,15.10
2019-04-23T06:42:57.872Z,15.00
2019-04-23T06:45:30.611Z,15.00
2019-04-23T06:48:09.073Z,15.10
2019-04-23T06:50:39.972Z,15.10
2019-04-23T06:53:02.458Z,15.10
2019-04-23T06:55:42.542Z,15.20
2019-04-23T06:58:20.792Z,15.20
2019-04-23T07:00:53.394Z,15.40
2019-04-23T07:06:20.851Z,15.50
2019-04-23T07:08:56.364Z,15.60
2019-04-23T07:13:57.614Z,15.60
2019-04-23T07:16:14.635Z,15.70
2019-04-23T07:18:48.698Z,15.80
2019-04-23T07:29:00.536Z,15.90
2019-04-23T07:31:50.118Z,16.00
2019-04-23T07:36:38.806Z,16.10
2019-04-23T07:39:27.015Z,16.20
2019-04-23T07:42:24.709Z,16.30
2019-04-23T07:48:06.744Z,16.40
2019-04-23T07:50:48.012Z,16.50
2019-04-23T07:53:12.601Z,16.60
2019-04-23T07:55:53.168Z,16.70
2019-04-23T08:05:42.650Z,16.80
2019-04-23T08:08:18.159Z,16.90
2019-04-23T08:11:24.481Z,16.70
2019-04-23T08:16:19.947Z,16.80
2019-04-23T08:18:52.382Z,17.10
2019-04-23T08:21:15.765Z,17.20
2019-04-23T08:24:13.436Z,17.20
2019-04-23T08:26:55.147Z,17.40
2019-04-23T08:29:30.695Z,17.60
2019-04-23T08:32:12.460Z,17.60
2019-04-23T08:34:45.332Z,17.60
2019-04-23T08:37:15.358Z,17.60
2019-04-23T08:42:33.055Z,17.60
2019-04-23T08:48:27.840Z,18.20
2019-04-23T08:51:07.829Z,18.50
2019-04-23T08:56:12.327Z,19.10
2019-04-23T09:01:05.111Z,19.20
2019-04-23T09:06:06.503Z,19.50
2019-04-23T09:08:37.473Z,19.50
2019-04-23T09:13:53.524Z,19.60
2019-04-23T09:16:15.542Z,19.70
2019-04-23T09:18:45.906Z,19.90
2019-04-23T09:21:21.292Z,19.80
2019-04-23T09:23:54.008Z,19.50
2019-04-23T09:26:13.413Z,19.50
2019-04-23T09:32:11.212Z,19.80
2019-04-23T09:34:46.651Z,19.90
2019-04-23T09:37:28.340Z,20.00
2019-04-23T09:40:18.868Z,20.10
2019-04-23T09:42:54.562Z,20.30
2019-04-23T09:45:26.907Z,20.40
2019-04-23T09:48:01.981Z,20.50
2019-04-23T09:50:38.189Z,20.40
2019-04-23T09:53:26.936Z,20.50
2019-04-23T09:58:08.312Z,20.60
2019-04-23T10:03:04.999Z,20.50
2019-04-23T10:05:33.537Z,20.70
2019-04-23T10:08:07.940Z,20.70
2019-04-23T10:10:28.272Z,20.70
2019-04-23T10:12:59.940Z,20.70
2019-04-23T10:15:36.579Z,20.70
2019-04-23T10:18:02.668Z,20.80
2019-04-23T10:20:34.361Z,20.90
2019-04-23T10:23:06.216Z,20.80
2019-04-23T10:25:38.240Z,20.60
2019-04-23T10:28:33.720Z,20.60
2019-04-23T10:31:04.896Z,20.50
2019-04-23T10:33:35.362Z,20.20
2019-04-23T10:36:10.934Z,20.10
2019-04-23T10:38:42.265Z,20.20
2019-04-23T10:41:10.194Z,20.30
2019-04-23T10:43:43.998Z,20.40
2019-04-23T10:46:53.065Z,20.60
2019-04-23T10:49:53.869Z,20.60
2019-04-23T10:52:20.182Z,20.70
2019-04-23T10:54:45.313Z,20.90
2019-04-23T10:57:16.195Z,21.10
2019-04-23T10:59:48.974Z,21.30
2019-04-23T11:07:30.678Z,21.60
2019-04-23T11:13:08.272Z,21.70
2019-04-23T11:18:08.985Z,21.80
2019-04-23T11:20:43.785Z,21.60
2019-04-23T11:22:58.489Z,21.50
2019-04-23T11:25:38.938Z,21.70
2019-04-23T11:30:45.213Z,22.10
2019-04-23T11:33:22.147Z,22.30
2019-04-23T11:36:19.015Z,22.40
2019-04-23T11:38:51.209Z,22.40
2019-04-23T11:41:00.428Z,22.20
2019-04-23T11:46:17.994Z,22.20
2019-04-23T11:51:39.482Z,22.20
2019-04-23T11:53:52.496Z,22.30
2019-04-23T11:56:22.441Z,22.20
2019-04-23T12:01:52.787Z,22.40
2019-04-23T12:07:14.827Z,22.50
2019-04-23T12:12:31.337Z,23.30
2019-04-23T12:15:18.277Z,23.70
2019-04-23T12:17:42.224Z,23.70
2019-04-23T12:22:44.580Z,24.00
2019-04-23T12:25:18.079Z,24.10
2019-04-23T12:27:33.297Z,24.10
2019-04-23T12:30:16.468Z,24.00
2019-04-23T12:32:53.621Z,24.00
2019-04-23T12:38:07.402Z,23.80
2019-04-23T12:45:42.197Z,23.90
2019-04-23T12:48:23.772Z,24.00
2019-04-23T12:53:34.734Z,24.20
2019-04-23T12:55:56.462Z,24.20
2019-04-23T12:58:33.922Z,24.20
2019-04-23T13:00:51.573Z,24.40
2019-04-23T13:06:03.567Z,24.90
2019-04-23T13:08:39.532Z,25.00
2019-04-23T13:11:10.303Z,25.10
2019-04-23T13:13:46.244Z,25.20
2019-04-23T13:16:16.684Z,25.20
2019-04-23T13:18:46.734Z,25.20
2019-04-23T13:21:41.457Z,25.00
2019-04-23T13:23:54.917Z,25.00
2019-04-23T13:26:23.565Z,25.00
2019-04-23T13:29:05.030Z,25.00
2019-04-23T13:31:29.330Z,25.00
2019-04-23T13:34:04.332Z,25.00
2019-04-23T13:39:20.670Z,24.90
2019-04-23T13:41:39.781Z,24.90
2019-04-23T13:44:23.587Z,24.90
2019-04-23T13:46:54.458Z,25.00
2019-04-23T13:49:31.676Z,25.00
2019-04-23T13:52:02.868Z,25.00
2019-04-23T13:54:46.841Z,25.00
2019-04-23T13:59:43.385Z,25.10
2019-04-23T14:02:07.806Z,25.00
2019-04-23T14:07:32.533Z,24.80
2019-04-23T14:10:07.224Z,24.70
2019-04-23T14:12:34.371Z,24.70
2019-04-23T14:15:04.559Z,24.60
2019-04-23T14:17:48.974Z,24.70
2019-04-23T14:20:10.337Z,24.50
2019-04-23T14:25:10.230Z,24.50
2019-04-23T14:27:49.470Z,24.40
2019-04-23T14:30:21.897Z,24.30
2019-04-23T14:32:45.436Z,24.20
2019-04-23T14:38:10.040Z,24.10
2019-04-23T14:40:29.659Z,24.00
2019-04-23T14:43:07.628Z,24.00
2019-04-23T14:46:12.257Z,24.00
2019-04-23T14:48:11.893Z,23.90
2019-04-23T14:53:27.346Z,23.90
2019-04-23T14:58:23.753Z,23.90
2019-04-23T15:01:07.463Z,23.80
2019-04-23T15:03:40.027Z,23.80
2019-04-23T15:06:12.124Z,23.90
2019-04-23T15:08:36.004Z,24.00
2019-04-23T15:11:14.413Z,24.00
2019-04-23T15:19:13.972Z,24.10
2019-04-23T15:24:13.379Z,24.00
2019-04-23T15:28:56.707Z,24.00
2019-04-23T15:31:48.883Z,23.80
2019-04-23T15:37:09.362Z,23.70
2019-04-23T15:39:24.438Z,23.80
2019-04-23T15:42:08.886Z,23.80
2019-04-23T15:44:16.378Z,23.90
2019-04-23T15:49:26.903Z,23.90
2019-04-23T15:52:07.389Z,23.90
2019-04-23T15:54:42.807Z,23.80
2019-04-23T15:57:07.208Z,23.80
2019-04-23T15:59:43.599Z,23.70
2019-04-23T16:01:43.891Z,23.70
2019-04-23T16:04:16.997Z,23.60
2019-04-23T16:06:47.782Z,23.60
2019-04-23T16:09:46.192Z,23.60
2019-04-23T16:12:12.567Z,23.60
2019-04-23T16:15:06.602Z,23.50
2019-04-23T16:17:28.991Z,23.50
2019-04-23T16:20:28.823Z,23.50
2019-04-23T16:22:36.931Z,23.40
2019-04-23T16:25:12.911Z,23.30
2019-04-23T16:27:42.598Z,23.30
2019-04-23T16:30:36.538Z,23.30
2019-04-23T16:33:08.752Z,23.30
2019-04-23T16:40:57.115Z,23.10
2019-04-23T16:43:42.187Z,23.20
2019-04-23T16:46:02.399Z,23.10
2019-04-23T16:51:16.668Z,23.00
2019-04-23T16:53:35.741Z,22.90
2019-04-23T16:56:13.480Z,22.90
2019-04-23T16:58:43.626Z,22.80
2019-04-23T17:01:21.343Z,22.80
2019-04-23T17:03:46.670Z,22.80
2019-04-23T17:06:18.645Z,22.70
2019-04-23T17:11:20.437Z,22.70
2019-04-23T17:13:54.400Z,22.70
2019-04-23T17:16:28.507Z,22.70
2019-04-23T17:19:07.515Z,22.70
2019-04-23T17:21:31.354Z,22.60
2019-04-23T17:24:07.986Z,22.50
2019-04-23T17:26:29.123Z,22.50
2019-04-23T17:29:09.878Z,22.50
2019-04-23T17:34:17.458Z,22.40
2019-04-23T17:36:44.341Z,22.30
2019-04-23T17:40:06.385Z,22.30
2019-04-23T17:42:37.457Z,22.30
2019-04-23T17:45:26.461Z,22.20
2019-04-23T17:51:06.062Z,22.00
2019-04-23T17:53:29.745Z,22.00
2019-04-23T17:58:37.335Z,21.80
2019-04-23T18:03:51.941Z,21.70
2019-04-23T18:08:53.957Z,21.60
2019-04-23T18:11:31.963Z,21.50
2019-04-23T18:13:57.921Z,21.40
2019-04-23T18:16:35.099Z,21.50
2019-04-23T18:21:50.644Z,21.30
2019-04-23T18:24:50.656Z,21.20
2019-04-23T18:29:59.735Z,21.10
2019-04-23T18:32:33.466Z,21.00
2019-04-23T18:37:32.608Z,20.90
2019-04-23T18:39:59.257Z,20.80
2019-04-23T18:45:14.763Z,20.70
2019-04-23T18:47:47.363Z,20.70
2019-04-23T18:50:15.642Z,20.60
2019-04-23T18:55:24.355Z,20.40
2019-04-23T18:57:50.488Z,20.30
2019-04-23T19:00:24.096Z,20.30
2019-04-23T19:03:02.657Z,20.30
2019-04-23T19:06:14.967Z,20.30
2019-04-23T19:11:23.097Z,20.30
2019-04-23T19:13:47.734Z,20.30
2019-04-23T19:16:25.371Z,20.20
2019-04-23T19:19:11.614Z,20.20
2019-04-23T19:21:56.159Z,20.20
2019-04-23T19:29:13.921Z,20.20
2019-04-23T19:31:54.138Z,20.10
2019-04-23T19:39:29.584Z,20.00
2019-04-23T19:44:41.121Z,19.90
2019-04-23T19:49:38.565Z,19.80
2019-04-23T19:52:03.096Z,19.80
2019-04-23T19:54:52.636Z,19.80
2019-04-23T19:57:35.663Z,19.70
2019-04-23T20:04:53.825Z,19.70
2019-04-23T20:12:39.076Z,19.60
2019-04-23T20:14:58.102Z,19.60
2019-04-23T20:17:37.734Z,19.50
2019-04-23T20:20:02.929Z,19.60
2019-04-23T20:22:42.173Z,19.50
2019-04-23T20:27:48.572Z,19.60
2019-04-23T20:41:05.785Z,19.50
2019-04-23T20:43:34.907Z,19.40
2019-04-23T20:46:00.045Z,19.30
2019-04-23T20:48:44.306Z,19.30
2019-04-23T20:50:57.499Z,19.30
2019-04-23T20:53:40.039Z,19.30
2019-04-23T20:56:18.331Z,19.30
2019-04-23T20:58:55.595Z,19.20
2019-04-23T21:01:30.667Z,19.20
2019-04-23T21:06:37.471Z,19.10
2019-04-23T21:09:20.217Z,19.10
2019-04-23T21:11:43.486Z,19.10
2019-04-23T21:14:22.792Z,19.10
2019-04-23T21:16:41.365Z,19.10
2019-04-23T21:19:10.352Z,19.00
2019-04-23T21:22:09.844Z,19.00
2019-04-23T21:24:42.425Z,19.00
2019-04-23T21:27:41.022Z,19.00
2019-04-23T21:32:40.962Z,18.90
2019-04-23T21:35:16.275Z,18.80
2019-04-23T21:37:58.876Z,18.80
2019-04-23T21:40:57.728Z,18.80
2019-04-23T21:43:09.354Z,18.70
2019-04-23T21:45:51.635Z,18.70
2019-04-23T21:48:15.676Z,18.60
2019-04-23T21:50:52.850Z,18.60
2019-04-23T21:53:20.216Z,18.60
2019-04-23T21:58:35.049Z,18.50
2019-04-23T22:01:14.398Z,18.50
2019-04-23T22:03:54.092Z,18.40
2019-04-23T22:06:17.569Z,18.20
2019-04-23T22:08:43.808Z,18.10
2019-04-23T22:11:42.804Z,18.00
2019-04-23T22:16:25.876Z,17.90
2019-04-23T22:19:05.727Z,17.70
2019-04-23T22:26:34.444Z,17.60
2019-04-23T22:31:40.316Z,17.60
2019-04-23T22:34:08.638Z,17.50
2019-04-23T22:36:43.661Z,17.30
2019-04-23T22:39:11.648Z,17.30
2019-04-23T22:44:30.871Z,17.10
2019-04-23T22:46:52.118Z,17.10
2019-04-23T22:49:29.035Z,17.10
2019-04-23T22:52:05.728Z,17.10
2019-04-23T22:54:23.785Z,17.00
2019-04-23T22:56:57.960Z,17.00
2019-04-23T23:02:36.041Z,16.70
2019-04-23T23:05:09.936Z,16.80
2019-04-23T23:07:41.251Z,16.60
2019-04-23T23:10:20.100Z,16.50
2019-04-23T23:12:52.419Z,16.50
2019-04-23T23:15:26.622Z,16.40
2019-04-23T23:17:50.700Z,16.40
2019-04-23T23:22:57.290Z,16.40
2019-04-23T23:27:58.937Z,16.10
2019-04-23T23:32:57.162Z,16.00
2019-04-23T23:38:00.139Z,16.00
2019-04-23T23:43:17.920Z,15.90
2019-04-23T23:48:08.097Z,16.00
2019-04-23T23:50:45.672Z,15.90
2019-04-23T23:53:25.354Z,15.70
2019-04-23T23:55:51.885Z,15.70
